createdAt,value
2017-09-26T00:01:17.176Z,66.20
2017-09-26T00:03:45.826Z,66.20
2017-09-26T00:06:13.295Z,66.20
2017-09-26T00:08:40.815Z,66.40
2017-09-26T00:11:08.270Z,66.40
2017-09-26T00:13:35.734Z,66.40
2017-09-26T00:16:03.226Z,66.30
2017-09-26T00:18:30.690Z,66.30
2017-09-26T00:20:58.162Z,66.20
2017-09-26T00:23:25.650Z,66.20
2017-09-26T00:25:53.146Z,66.10
2017-09-26T00:28:20.793Z,66.30
2017-09-26T00:30:48.266Z,66.60
2017-09-26T00:33:16.578Z,67.20
2017-09-26T00:35:44.049Z,67.20
2017-09-26T00:38:13.916Z,67.60
2017-09-26T00:40:41.391Z,67.60
2017-09-26T00:43:08.861Z,67.60
2017-09-26T00:45:36.338Z,67.60
2017-09-26T00:48:03.824Z,67.50
2017-09-26T00:50:31.282Z,67.40
2017-09-26T00:52:58.760Z,67.30
2017-09-26T00:55:26.222Z,67.20
2017-09-26T00:57:53.713Z,67.10
2017-09-26T01:00:21.173Z,66.90
2017-09-26T01:02:48.662Z,66.70
2017-09-26T01:05:22.902Z,66.10
2017-09-26T01:07:50.394Z,66.10
2017-09-26T01:10:17.964Z,66.00
2017-09-26T01:12:45.430Z,66.00
2017-09-26T01:15:12.898Z,66.00
2017-09-26T01:17:41.140Z,65.90
2017-09-26T01:20:08.604Z,65.90
2017-09-26T01:22:36.104Z,65.70
2017-09-26T01:25:03.574Z,65.50
2017-09-26T01:27:31.032Z,65.50
2017-09-26T01:29:58.609Z,65.50
2017-09-26T01:32:26.125Z,65.40
2017-09-26T01:34:53.654Z,65.30
2017-09-26T01:37:21.163Z,65.30
2017-09-26T01:39:49.402Z,65.20
2017-09-26T01:42:17.785Z,65.10
2017-09-26T01:44:45.249Z,65.10
2017-09-26T01:47:12.741Z,65.10
2017-09-26T01:49:40.205Z,65.20
2017-09-26T01:52:07.685Z,65.50
2017-09-26T01:54:35.149Z,65.40
2017-09-26T01:57:05.401Z,65.40
2017-09-26T01:59:39.478Z,65.30
2017-09-26T02:02:07.393Z,65.40
2017-09-26T02:04:34.881Z,65.50
2017-09-26T02:07:03.173Z,65.60
2017-09-26T02:09:30.630Z,65.50
2017-09-26T02:11:58.134Z,66.30
2017-09-26T02:14:25.598Z,65.40
2017-09-26T02:16:53.062Z,65.30
2017-09-26T02:19:20.637Z,65.40
2017-09-26T02:21:48.898Z,65.30
2017-09-26T02:24:16.349Z,65.30
2017-09-26T02:26:43.801Z,65.30
2017-09-26T02:29:11.326Z,65.20
2017-09-26T02:31:38.790Z,65.20
2017-09-26T02:34:06.287Z,65.10
2017-09-26T02:36:33.742Z,65.00
2017-09-26T02:39:01.198Z,65.10
2017-09-26T02:41:28.688Z,65.00
2017-09-26T02:43:56.149Z,65.10
2017-09-26T02:46:23.602Z,65.10
2017-09-26T02:48:51.122Z,65.00
2017-09-26T02:51:18.581Z,65.80
2017-09-26T02:53:46.049Z,65.10
2017-09-26T02:56:13.529Z,65.00
2017-09-26T02:58:41.810Z,64.80
2017-09-26T03:01:10.099Z,64.90
2017-09-26T03:03:37.562Z,64.90
2017-09-26T03:06:05.061Z,64.90
2017-09-26T03:08:32.541Z,64.90
2017-09-26T03:11:00.060Z,65.00
2017-09-26T03:13:27.546Z,65.10
2017-09-26T03:15:55.790Z,65.40
2017-09-26T03:18:23.283Z,65.30
2017-09-26T03:20:50.761Z,65.80
2017-09-26T03:23:18.865Z,65.70
2017-09-26T03:25:46.356Z,65.60
2017-09-26T03:28:13.894Z,65.70
2017-09-26T03:30:41.391Z,65.90
2017-09-26T03:33:08.849Z,66.10
2017-09-26T03:35:36.311Z,66.00
2017-09-26T03:38:03.800Z,66.00
2017-09-26T03:40:31.267Z,66.30
2017-09-26T03:42:58.737Z,66.30
2017-09-26T03:45:26.229Z,66.30
2017-09-26T03:47:53.697Z,66.40
2017-09-26T03:50:21.166Z,66.40
2017-09-26T03:52:50.362Z,66.50
2017-09-26T03:55:17.833Z,66.40
2017-09-26T03:57:45.374Z,66.50
2017-09-26T04:00:12.842Z,66.60
2017-09-26T04:02:40.308Z,66.60
2017-09-26T04:05:07.810Z,66.60
2017-09-26T04:07:35.340Z,66.70
2017-09-26T04:10:03.581Z,66.70
2017-09-26T04:12:31.172Z,66.70
2017-09-26T04:14:58.645Z,66.70
2017-09-26T04:17:26.115Z,66.70
2017-09-26T04:19:53.677Z,66.90
2017-09-26T04:22:21.178Z,66.90
2017-09-26T04:24:48.637Z,66.80
2017-09-26T04:27:16.113Z,66.80
2017-09-26T04:29:43.650Z,66.90
2017-09-26T04:32:11.114Z,66.80
2017-09-26T04:34:38.578Z,66.80
2017-09-26T04:37:06.075Z,67.00
2017-09-26T04:39:33.538Z,66.90
2017-09-26T04:42:01.005Z,67.00
2017-09-26T04:44:28.566Z,67.00
2017-09-26T04:46:56.033Z,67.10
2017-09-26T04:49:23.599Z,67.20
2017-09-26T04:51:51.056Z,67.30
2017-09-26T04:54:18.553Z,67.30
2017-09-26T04:56:46.018Z,67.40
2017-09-26T04:59:13.474Z,67.40
2017-09-26T05:01:40.964Z,67.50
2017-09-26T05:04:08.469Z,67.50
2017-09-26T05:06:35.946Z,67.50
2017-09-26T05:09:03.455Z,67.50
2017-09-26T05:11:30.926Z,67.50
2017-09-26T05:13:58.398Z,67.70
2017-09-26T05:16:25.874Z,67.70
2017-09-26T05:18:53.364Z,67.70
2017-09-26T05:21:21.737Z,67.80
2017-09-26T05:23:50.894Z,67.80
2017-09-26T05:26:18.390Z,67.70
2017-09-26T05:28:46.614Z,67.80
2017-09-26T05:31:14.306Z,67.80
2017-09-26T05:33:41.781Z,67.80
2017-09-26T05:36:09.250Z,67.80
2017-09-26T05:38:36.741Z,67.90
2017-09-26T05:41:04.233Z,67.90
2017-09-26T05:43:31.721Z,67.90
2017-09-26T05:45:59.998Z,68.00
2017-09-26T05:48:28.221Z,67.90
2017-09-26T05:50:55.699Z,67.90
2017-09-26T05:53:23.190Z,67.90
2017-09-26T05:55:52.240Z,67.90
2017-09-26T05:58:19.726Z,67.90
2017-09-26T06:00:47.250Z,67.70
2017-09-26T06:03:14.782Z,67.60
2017-09-26T06:05:42.257Z,67.70
2017-09-26T06:08:09.762Z,67.70
2017-09-26T06:10:37.305Z,67.70
2017-09-26T06:13:04.775Z,67.60
2017-09-26T06:15:32.238Z,67.70
2017-09-26T06:17:59.735Z,67.70
2017-09-26T06:20:27.206Z,67.60
2017-09-26T06:22:54.703Z,67.50
2017-09-26T06:25:22.169Z,67.50
2017-09-26T06:27:49.637Z,67.40
2017-09-26T06:30:17.130Z,67.30
2017-09-26T06:32:44.631Z,67.30
2017-09-26T06:35:12.098Z,67.40
2017-09-26T06:37:39.578Z,67.30
2017-09-26T06:40:07.161Z,67.30
2017-09-26T06:42:34.647Z,67.40
2017-09-26T06:45:02.144Z,67.30
2017-09-26T06:47:29.691Z,67.30
2017-09-26T06:49:57.974Z,67.40
2017-09-26T06:52:25.487Z,67.30
2017-09-26T06:54:52.945Z,67.30
2017-09-26T06:57:20.415Z,67.30
2017-09-26T06:59:47.922Z,67.30
2017-09-26T07:02:15.382Z,67.20
2017-09-26T07:04:42.851Z,67.10
2017-09-26T07:07:10.377Z,67.00
2017-09-26T07:09:37.971Z,66.90
2017-09-26T07:12:05.421Z,66.90
2017-09-26T07:14:32.876Z,66.80
2017-09-26T07:17:00.366Z,66.70
2017-09-26T07:19:27.821Z,66.60
2017-09-26T07:21:55.300Z,66.70
2017-09-26T07:24:22.952Z,66.60
2017-09-26T07:26:50.446Z,66.40
2017-09-26T07:29:17.906Z,66.50
2017-09-26T07:31:45.394Z,67.10
2017-09-26T07:34:13.660Z,66.20
2017-09-26T07:36:41.139Z,66.20
2017-09-26T07:39:09.415Z,66.00
2017-09-26T07:41:37.661Z,66.20
2017-09-26T07:44:05.129Z,66.20
2017-09-26T07:46:32.587Z,66.20
2017-09-26T07:49:00.094Z,66.10
2017-09-26T07:51:27.630Z,66.10
2017-09-26T07:53:55.097Z,66.00
2017-09-26T07:56:23.382Z,66.00
2017-09-26T07:58:50.865Z,65.90
2017-09-26T08:01:18.578Z,65.80
2017-09-26T08:03:47.021Z,65.50
2017-09-26T08:06:14.813Z,65.50
2017-09-26T08:08:42.501Z,65.50
2017-09-26T08:11:09.961Z,65.60
2017-09-26T08:13:37.538Z,65.20
2017-09-26T08:16:05.045Z,65.20
2017-09-26T08:18:32.645Z,65.20
2017-09-26T08:21:00.111Z,65.00
2017-09-26T08:23:27.578Z,64.90
2017-09-26T08:25:55.065Z,64.90
2017-09-26T08:28:22.549Z,64.60
2017-09-26T08:30:50.127Z,64.40
2017-09-26T08:33:18.345Z,63.70
2017-09-26T08:35:45.810Z,63.70
2017-09-26T08:38:13.353Z,63.50
2017-09-26T08:40:40.819Z,63.10
2017-09-26T08:43:08.309Z,63.10
2017-09-26T08:45:35.791Z,62.80
2017-09-26T08:48:03.244Z,62.70
2017-09-26T08:50:30.726Z,62.70
2017-09-26T08:52:58.221Z,62.80
2017-09-26T08:55:25.689Z,62.80
2017-09-26T08:57:54.100Z,62.80
2017-09-26T09:00:21.567Z,62.70
2017-09-26T09:02:49.045Z,62.60
2017-09-26T09:05:16.514Z,62.50
2017-09-26T09:07:43.997Z,62.60
2017-09-26T09:10:11.493Z,62.70
2017-09-26T09:12:39.906Z,62.30
2017-09-26T09:15:07.385Z,62.30
2017-09-26T09:17:34.850Z,62.20
2017-09-26T09:20:02.355Z,62.10
2017-09-26T09:22:30.606Z,62.00
2017-09-26T09:24:58.074Z,61.80
2017-09-26T09:27:25.570Z,61.90
2017-09-26T09:29:53.040Z,61.60
2017-09-26T09:32:20.510Z,61.60
2017-09-26T09:34:47.993Z,61.40
2017-09-26T09:37:15.494Z,61.50
2017-09-26T09:39:42.995Z,61.20
2017-09-26T09:42:10.474Z,60.80
2017-09-26T09:44:37.932Z,60.80
2017-09-26T09:47:05.417Z,60.50
2017-09-26T09:49:33.662Z,60.70
2017-09-26T09:52:01.147Z,60.70
2017-09-26T09:54:29.443Z,60.60
2017-09-26T09:56:56.942Z,60.60
2017-09-26T09:59:25.403Z,60.60
2017-09-26T10:01:52.946Z,60.50
2017-09-26T10:04:20.433Z,60.50
2017-09-26T10:06:47.884Z,60.10
2017-09-26T10:09:15.395Z,60.20
2017-09-26T10:11:43.668Z,59.90
2017-09-26T10:14:11.154Z,59.90
2017-09-26T10:16:38.644Z,59.80
2017-09-26T10:19:06.137Z,59.80
2017-09-26T10:21:33.612Z,59.70
2017-09-26T10:24:01.137Z,59.50
2017-09-26T10:26:28.609Z,59.20
2017-09-26T10:28:56.166Z,59.10
2017-09-26T10:31:23.658Z,58.90
2017-09-26T10:33:51.134Z,58.60
2017-09-26T10:36:18.582Z,58.50
2017-09-26T10:38:46.061Z,58.20
2017-09-26T10:41:13.518Z,58.00
2017-09-26T10:43:41.174Z,58.30
2017-09-26T10:46:08.698Z,57.90
2017-09-26T10:48:36.954Z,57.90
2017-09-26T10:51:04.433Z,57.80
2017-09-26T10:53:32.689Z,57.70
2017-09-26T10:56:00.175Z,57.70
2017-09-26T10:58:28.506Z,57.60
2017-09-26T11:00:57.201Z,57.70
2017-09-26T11:03:24.677Z,57.70
2017-09-26T11:05:52.184Z,57.70
2017-09-26T11:08:19.646Z,57.80
2017-09-26T11:10:47.116Z,57.70
2017-09-26T11:13:14.618Z,57.70
2017-09-26T11:15:42.099Z,57.40
2017-09-26T11:18:10.384Z,57.30
2017-09-26T11:20:37.889Z,57.20
2017-09-26T11:23:05.376Z,57.40
2017-09-26T11:25:32.833Z,57.40
2017-09-26T11:28:00.341Z,57.20
2017-09-26T11:30:27.806Z,57.20
2017-09-26T11:32:55.270Z,57.20
2017-09-26T11:35:22.765Z,57.10
2017-09-26T11:37:50.249Z,57.00
2017-09-26T11:40:17.719Z,56.80
2017-09-26T11:42:45.213Z,56.40
2017-09-26T11:45:12.705Z,56.40
2017-09-26T11:47:40.197Z,56.40
2017-09-26T11:50:07.733Z,56.30
2017-09-26T11:52:35.981Z,56.10
2017-09-26T11:55:03.517Z,56.00
2017-09-26T11:57:30.973Z,55.70
2017-09-26T11:59:58.435Z,55.50
2017-09-26T12:02:25.921Z,55.40
2017-09-26T12:04:53.397Z,55.30
2017-09-26T12:07:20.901Z,54.90
2017-09-26T12:09:48.381Z,54.70
2017-09-26T12:12:15.884Z,54.50
2017-09-26T12:14:43.344Z,54.50
2017-09-26T12:17:11.659Z,54.10
2017-09-26T12:19:39.133Z,54.00
2017-09-26T12:22:06.625Z,54.00
2017-09-26T12:24:34.861Z,53.80
2017-09-26T12:27:02.367Z,53.80
2017-09-26T12:29:29.829Z,53.80
2017-09-26T12:31:57.293Z,53.60
2017-09-26T12:34:24.781Z,53.60
2017-09-26T12:36:52.268Z,53.40
2017-09-26T12:39:19.751Z,53.40
2017-09-26T12:41:48.013Z,53.20
2017-09-26T12:44:15.488Z,53.20
2017-09-26T12:46:43.722Z,53.10
2017-09-26T12:49:11.287Z,53.10
2017-09-26T12:51:38.742Z,52.90
2017-09-26T12:54:06.278Z,52.90
2017-09-26T12:56:33.761Z,52.70
2017-09-26T12:59:01.285Z,52.90
2017-09-26T13:01:28.781Z,52.20
2017-09-26T13:03:56.250Z,52.10
2017-09-26T13:06:23.718Z,51.90
2017-09-26T13:08:51.203Z,51.80
2017-09-26T13:11:18.673Z,51.70
2017-09-26T13:13:46.184Z,51.60
2017-09-26T13:16:13.647Z,51.80
2017-09-26T13:18:41.125Z,51.70
2017-09-26T13:21:09.441Z,51.60
2017-09-26T13:23:36.910Z,51.60
2017-09-26T13:26:04.390Z,51.20
2017-09-26T13:28:31.881Z,51.00
2017-09-26T13:30:59.382Z,50.60
2017-09-26T13:33:26.861Z,51.00
2017-09-26T13:35:54.360Z,49.60
2017-09-26T13:38:22.593Z,47.30
2017-09-26T13:40:50.089Z,47.10
2017-09-26T13:43:18.323Z,46.10
2017-09-26T13:45:45.854Z,46.00
2017-09-26T13:48:13.308Z,45.60
2017-09-26T13:50:40.794Z,44.80
2017-09-26T13:53:08.270Z,43.30
2017-09-26T13:55:35.766Z,41.60
2017-09-26T13:58:03.994Z,42.50
2017-09-26T14:00:31.481Z,42.50
2017-09-26T14:03:00.385Z,42.80
2017-09-26T14:05:27.845Z,42.80
2017-09-26T14:07:55.337Z,43.20
2017-09-26T14:10:22.906Z,43.30
2017-09-26T14:12:50.373Z,43.30
2017-09-26T14:15:17.871Z,43.90
2017-09-26T14:17:46.144Z,44.20
2017-09-26T14:20:13.614Z,44.80
2017-09-26T14:22:41.114Z,44.50
2017-09-26T14:25:08.585Z,44.80
2017-09-26T14:27:36.052Z,44.90
2017-09-26T14:30:03.553Z,44.60
2017-09-26T14:32:31.798Z,43.10
2017-09-26T14:35:00.962Z,43.10
2017-09-26T14:37:28.466Z,43.00
2017-09-26T14:39:55.938Z,43.40
2017-09-26T14:42:24.201Z,44.00
2017-09-26T14:44:51.699Z,44.00
2017-09-26T14:47:19.197Z,44.10
2017-09-26T14:49:46.664Z,44.40
2017-09-26T14:52:14.179Z,44.60
2017-09-26T14:54:41.660Z,44.80
2017-09-26T14:57:09.149Z,44.60
2017-09-26T14:59:36.605Z,44.00
2017-09-26T15:02:04.077Z,43.80
2017-09-26T15:04:31.533Z,43.70
2017-09-26T15:07:00.717Z,43.80
2017-09-26T15:09:28.193Z,43.80
2017-09-26T15:11:56.419Z,44.30
2017-09-26T15:14:23.897Z,44.30
2017-09-26T15:16:51.354Z,43.90
2017-09-26T15:19:18.837Z,43.20
2017-09-26T15:21:46.300Z,43.10
2017-09-26T15:24:14.521Z,43.50
2017-09-26T15:26:42.017Z,43.50
2017-09-26T15:29:09.495Z,43.70
2017-09-26T15:31:37.756Z,43.50
2017-09-26T15:34:05.222Z,43.50
2017-09-26T15:36:32.714Z,42.60
2017-09-26T15:39:01.262Z,41.60
2017-09-26T15:41:28.722Z,40.40
2017-09-26T15:43:56.177Z,39.40
2017-09-26T15:46:23.672Z,38.90
2017-09-26T15:48:51.171Z,39.10
2017-09-26T15:51:18.643Z,39.40
2017-09-26T15:53:46.103Z,39.90
2017-09-26T15:56:13.603Z,40.70
2017-09-26T15:58:41.109Z,41.80
2017-09-26T16:01:08.603Z,42.50
2017-09-26T16:03:36.833Z,44.00
2017-09-26T16:06:04.382Z,44.00
2017-09-26T16:08:31.929Z,44.70
2017-09-26T16:10:59.456Z,45.00
2017-09-26T16:13:27.673Z,45.70
2017-09-26T16:15:55.197Z,45.50
2017-09-26T16:18:22.730Z,46.40
2017-09-26T16:20:50.191Z,46.10
2017-09-26T16:23:18.263Z,46.60
2017-09-26T16:25:46.096Z,47.00
2017-09-26T16:28:14.677Z,47.40
2017-09-26T16:30:42.389Z,47.70
2017-09-26T16:33:10.319Z,48.00
2017-09-26T16:35:38.076Z,48.30
2017-09-26T16:38:05.861Z,48.60
2017-09-26T16:40:34.277Z,48.90
2017-09-26T16:43:02.508Z,49.10
2017-09-26T16:45:30.090Z,49.40
2017-09-26T16:47:57.602Z,49.60
2017-09-26T16:50:25.170Z,49.90
2017-09-26T16:52:53.040Z,50.20
2017-09-26T16:55:20.586Z,50.50
2017-09-26T16:57:48.246Z,50.80
2017-09-26T17:00:16.215Z,51.10
2017-09-26T17:02:43.818Z,51.30
2017-09-26T17:05:11.292Z,51.50
2017-09-26T17:07:38.793Z,51.70
2017-09-26T17:10:06.551Z,52.00
2017-09-26T17:12:34.439Z,52.30
2017-09-26T17:15:03.489Z,52.80
2017-09-26T17:17:30.978Z,52.70
2017-09-26T17:19:58.442Z,52.90
2017-09-26T17:22:25.931Z,53.20
2017-09-26T17:24:53.413Z,53.40
2017-09-26T17:27:20.903Z,53.60
2017-09-26T17:29:48.520Z,53.80
2017-09-26T17:32:15.977Z,54.10
2017-09-26T17:34:43.469Z,54.30
2017-09-26T17:37:11.702Z,54.60
2017-09-26T17:39:39.148Z,54.70
2017-09-26T17:42:06.834Z,55.40
2017-09-26T17:44:34.345Z,54.90
2017-09-26T17:47:01.820Z,55.10
2017-09-26T17:49:29.472Z,55.20
2017-09-26T17:51:56.977Z,55.30
2017-09-26T17:54:24.463Z,55.40
2017-09-26T17:56:52.687Z,55.60
2017-09-26T17:59:20.227Z,55.60
2017-09-26T18:01:47.690Z,55.80
2017-09-26T18:04:15.151Z,55.80
2017-09-26T18:06:42.633Z,55.90
2017-09-26T18:09:10.125Z,56.00
2017-09-26T18:11:37.599Z,56.10
2017-09-26T18:14:05.073Z,56.10
2017-09-26T18:16:32.534Z,56.20
2017-09-26T18:19:00.031Z,56.20
2017-09-26T18:21:27.526Z,56.30
2017-09-26T18:23:55.754Z,56.50
2017-09-26T18:26:23.225Z,56.50
2017-09-26T18:28:50.709Z,56.60
2017-09-26T18:31:18.186Z,56.60
2017-09-26T18:33:46.429Z,56.80
2017-09-26T18:36:13.890Z,56.80
2017-09-26T18:38:41.376Z,56.80
2017-09-26T18:41:09.607Z,56.80
2017-09-26T18:43:37.067Z,56.80
2017-09-26T18:46:04.562Z,56.80
2017-09-26T18:48:32.819Z,56.90
2017-09-26T18:51:00.304Z,56.90
2017-09-26T18:53:28.545Z,57.10
2017-09-26T18:55:56.053Z,57.10
2017-09-26T18:58:23.506Z,57.10
2017-09-26T19:00:50.993Z,57.20
2017-09-26T19:03:18.508Z,57.80
2017-09-26T19:05:45.991Z,57.30
2017-09-26T19:08:13.457Z,57.40
2017-09-26T19:10:40.999Z,57.60
2017-09-26T19:13:09.226Z,57.60
2017-09-26T19:15:36.693Z,57.60
2017-09-26T19:18:05.102Z,57.70
2017-09-26T19:20:32.598Z,57.70
2017-09-26T19:23:00.079Z,57.60
2017-09-26T19:25:28.528Z,58.30
2017-09-26T19:27:56.190Z,57.70
2017-09-26T19:30:23.657Z,57.70
2017-09-26T19:32:51.138Z,57.70
2017-09-26T19:35:18.669Z,57.80
2017-09-26T19:37:46.133Z,57.90
2017-09-26T19:40:13.674Z,58.00
2017-09-26T19:42:41.169Z,58.20
2017-09-26T19:45:08.670Z,58.30
2017-09-26T19:47:36.194Z,58.20
2017-09-26T19:50:03.688Z,58.20
2017-09-26T19:52:31.978Z,58.40
2017-09-26T19:54:59.440Z,58.40
2017-09-26T19:57:26.947Z,58.40
2017-09-26T19:59:54.429Z,58.40
2017-09-26T20:02:21.934Z,58.30
2017-09-26T20:04:49.425Z,58.30
2017-09-26T20:07:16.904Z,58.30
2017-09-26T20:09:44.418Z,58.30
2017-09-26T20:12:11.904Z,58.20
2017-09-26T20:14:39.376Z,58.30
2017-09-26T20:17:06.911Z,58.20
2017-09-26T20:19:35.113Z,58.30
2017-09-26T20:22:02.656Z,58.10
2017-09-26T20:24:30.126Z,58.00
2017-09-26T20:26:57.607Z,57.80
2017-09-26T20:29:25.065Z,57.60
2017-09-26T20:31:52.550Z,57.60
2017-09-26T20:34:20.038Z,57.60
2017-09-26T20:36:47.524Z,58.20
2017-09-26T20:39:15.040Z,57.70
2017-09-26T20:41:42.517Z,57.80
2017-09-26T20:44:09.969Z,58.40
2017-09-26T20:46:37.465Z,57.90
2017-09-26T20:49:04.953Z,57.90
2017-09-26T20:51:32.433Z,57.90
2017-09-26T20:53:59.933Z,57.90
2017-09-26T20:56:27.399Z,58.00
2017-09-26T20:58:55.656Z,58.10
2017-09-26T21:01:24.845Z,58.00
2017-09-26T21:03:52.309Z,58.00
2017-09-26T21:06:19.798Z,58.00
2017-09-26T21:08:48.049Z,58.40
2017-09-26T21:11:15.522Z,58.40
2017-09-26T21:13:43.002Z,58.50
2017-09-26T21:16:10.467Z,58.50
2017-09-26T21:18:38.021Z,58.40
2017-09-26T21:21:07.173Z,58.40
2017-09-26T21:23:34.663Z,58.40
2017-09-26T21:26:02.145Z,58.40
2017-09-26T21:28:29.606Z,58.50
2017-09-26T21:30:57.105Z,59.30
2017-09-26T21:33:24.589Z,58.80
2017-09-26T21:35:52.086Z,58.70
2017-09-26T21:38:19.562Z,58.60
2017-09-26T21:40:47.058Z,58.50
2017-09-26T21:43:14.537Z,58.40
2017-09-26T21:45:42.039Z,58.20
2017-09-26T21:48:09.498Z,58.30
2017-09-26T21:50:37.534Z,58.20
2017-09-26T21:53:05.055Z,58.20
2017-09-26T21:55:32.500Z,58.00
2017-09-26T21:57:59.979Z,58.10
2017-09-26T22:00:27.474Z,58.20
2017-09-26T22:02:54.938Z,58.10
2017-09-26T22:05:22.436Z,58.10
2017-09-26T22:07:49.899Z,58.10
2017-09-26T22:10:17.385Z,58.10
2017-09-26T22:12:44.896Z,58.10
2017-09-26T22:15:12.425Z,58.10
2017-09-26T22:17:39.892Z,57.90
2017-09-26T22:20:08.939Z,58.00
2017-09-26T22:22:36.393Z,58.00
2017-09-26T22:25:03.943Z,58.00
2017-09-26T22:27:31.392Z,58.00
2017-09-26T22:29:58.849Z,58.00
2017-09-26T22:32:26.330Z,58.10
2017-09-26T22:34:53.794Z,58.00
2017-09-26T22:37:21.265Z,58.10
2017-09-26T22:39:49.495Z,58.30
2017-09-26T22:42:17.009Z,58.80
2017-09-26T22:44:44.468Z,58.30
2017-09-26T22:47:12.721Z,58.40
2017-09-26T22:49:40.203Z,58.40
2017-09-26T22:52:08.377Z,59.00
2017-09-26T22:54:36.632Z,58.60
2017-09-26T22:57:04.173Z,58.60
2017-09-26T22:59:31.659Z,58.70
2017-09-26T23:01:59.158Z,58.80
2017-09-26T23:04:26.631Z,58.70
2017-09-26T23:06:54.090Z,58.80
2017-09-26T23:09:21.652Z,58.90
2017-09-26T23:11:49.109Z,59.00
2017-09-26T23:14:16.569Z,59.10
2017-09-26T23:16:44.054Z,59.20
2017-09-26T23:19:11.550Z,59.40
2017-09-26T23:21:40.066Z,59.70
2017-09-26T23:24:07.525Z,59.60
2017-09-26T23:26:35.011Z,59.70
2017-09-26T23:29:02.492Z,59.80
2017-09-26T23:31:30.743Z,60.10
2017-09-26T23:33:58.198Z,60.00
2017-09-26T23:36:25.666Z,60.10
2017-09-26T23:38:53.165Z,60.30
2017-09-26T23:41:20.652Z,60.40
2017-09-26T23:43:48.120Z,60.70
2017-09-26T23:46:15.606Z,60.80
2017-09-26T23:48:43.074Z,60.90
2017-09-26T23:51:11.334Z,61.00
2017-09-26T23:53:38.794Z,61.00
2017-09-26T23:56:06.281Z,61.10
2017-09-26T23:58:33.839Z,61.20
